createdAt,value
2022-10-13T00:01:23.655Z,101238.84
2022-10-13T00:03:54.785Z,101252.47
2022-10-13T00:06:26.591Z,101257.03
2022-10-13T00:08:57.295Z,101257.03
2022-10-13T00:11:28.439Z,101256.03
2022-10-13T00:13:58.702Z,101251.66
2022-10-13T00:16:28.454Z,101262.41
2022-10-13T00:19:01.259Z,101249.97
2022-10-13T00:21:30.414Z,101251.66
2022-10-13T00:23:59.033Z,101245.41
2022-10-13T00:26:28.316Z,101223.13
2022-10-13T00:28:56.822Z,101246.28
2022-10-13T00:31:26.971Z,101246.28
2022-10-13T00:33:55.784Z,101228.00
2022-10-13T00:36:27.467Z,101212.19
2022-10-13T00:38:56.182Z,101201.72
2022-10-13T00:41:24.737Z,101240.91
2022-10-13T00:44:00.150Z,101241.72
2022-10-13T00:46:30.953Z,101240.91
2022-10-13T00:49:02.178Z,101230.16
2022-10-13T00:51:36.046Z,101228.47
2022-10-13T00:54:07.343Z,101239.22
2022-10-13T00:56:40.172Z,101222.09
2022-10-13T00:59:14.306Z,101228.47
2022-10-13T01:01:42.882Z,101216.00
2022-10-13T01:04:11.958Z,101218.53
2022-10-13T01:06:42.621Z,101212.34
2022-10-13T01:09:10.899Z,101210.34
2022-10-13T01:11:57.563Z,101203.56
2022-10-13T01:14:33.186Z,101213.16
2022-10-13T01:17:09.033Z,101199.88
2022-10-13T01:20:06.143Z,101209.78
2022-10-13T01:22:49.105Z,101208.94
2022-10-13T01:25:35.287Z,101198.19
2022-10-13T01:28:29.689Z,101198.19
2022-10-13T01:31:03.697Z,101187.44
2022-10-13T01:33:43.688Z,101164.03
2022-10-13T01:36:21.210Z,101176.94
2022-10-13T01:38:57.509Z,101180.38
2022-10-13T01:41:30.992Z,101169.63
2022-10-13T01:44:05.424Z,101161.41
2022-10-13T01:46:38.242Z,101169.63
2022-10-13T01:49:08.927Z,101157.88
2022-10-13T01:51:38.169Z,101160.56
2022-10-13T01:54:06.379Z,101157.16
2022-10-13T01:56:34.477Z,101162.25
2022-10-13T01:59:08.003Z,101155.19
2022-10-13T02:01:57.674Z,101151.63
2022-10-13T02:04:38.591Z,101154.91
2022-10-13T02:07:15.530Z,101153.22
2022-10-13T02:09:52.999Z,101140.59
2022-10-13T02:12:27.770Z,101139.06
2022-10-13T02:14:58.790Z,101125.75
2022-10-13T02:17:30.026Z,101126.34
2022-10-13T02:19:59.789Z,101126.34
2022-10-13T02:22:33.014Z,101126.63
2022-10-13T02:25:01.745Z,101131.72
2022-10-13T02:27:30.129Z,101105.91
2022-10-13T02:29:59.661Z,101101.09
2022-10-13T02:32:29.718Z,101130.00
2022-10-13T02:34:58.594Z,101132.81
2022-10-13T02:37:27.186Z,101126.34
2022-10-13T02:39:56.118Z,101128.84
2022-10-13T02:42:24.555Z,101122.66
2022-10-13T02:44:52.973Z,101120.97
2022-10-13T02:47:21.538Z,101108.63
2022-10-13T02:49:51.180Z,101116.41
2022-10-13T02:52:19.707Z,101114.72
2022-10-13T02:54:48.805Z,101107.53
2022-10-13T02:57:17.348Z,101104.84
2022-10-13T02:59:46.253Z,101108.50
2022-10-13T03:02:14.559Z,101105.81
2022-10-13T03:04:43.051Z,101099.47
2022-10-13T03:07:15.196Z,101097.75
2022-10-13T03:09:43.782Z,101094.09
2022-10-13T03:12:12.077Z,101082.63
2022-10-13T03:14:40.251Z,101090.41
2022-10-13T03:17:13.283Z,101088.72
2022-10-13T03:19:41.926Z,101085.03
2022-10-13T03:22:10.557Z,101085.03
2022-10-13T03:24:40.359Z,101074.56
2022-10-13T03:27:08.982Z,101082.34
2022-10-13T03:29:37.244Z,101068.91
2022-10-13T03:32:07.140Z,101067.22
2022-10-13T03:34:35.741Z,101063.53
2022-10-13T03:37:06.128Z,101061.84
2022-10-13T03:39:34.290Z,101056.47
2022-10-13T03:42:04.152Z,101054.75
2022-10-13T03:44:32.558Z,101057.44
2022-10-13T03:47:03.440Z,101051.09
2022-10-13T03:49:31.949Z,101027.28
2022-10-13T03:52:01.274Z,101052.78
2022-10-13T03:54:29.994Z,101047.41
2022-10-13T03:56:58.272Z,101045.72
2022-10-13T03:59:34.209Z,101036.94
2022-10-13T04:02:04.674Z,101036.66
2022-10-13T04:04:32.874Z,101034.97
2022-10-13T04:07:00.994Z,101025.91
2022-10-13T04:09:29.405Z,101020.53
2022-10-13T04:11:57.582Z,101019.53
2022-10-13T04:14:27.253Z,101022.22
2022-10-13T04:16:55.569Z,101013.47
2022-10-13T04:19:23.844Z,101007.78
2022-10-13T04:21:52.086Z,101006.09
2022-10-13T04:24:20.240Z,101016.84
2022-10-13T04:26:48.900Z,100995.63
2022-10-13T04:29:17.446Z,101001.72
2022-10-13T04:31:47.573Z,100988.28
2022-10-13T04:34:16.169Z,100999.03
2022-10-13T04:36:44.786Z,100998.03
2022-10-13T04:39:13.034Z,100999.03
2022-10-13T04:41:41.358Z,101004.41
2022-10-13T04:44:10.206Z,100981.59
2022-10-13T04:46:38.451Z,100997.34
2022-10-13T04:49:08.321Z,100992.25
2022-10-13T04:51:36.556Z,100986.59
2022-10-13T04:54:05.885Z,100986.59
2022-10-13T04:56:34.087Z,100989.13
2022-10-13T04:59:02.560Z,100976.13
2022-10-13T05:01:30.768Z,100986.59
2022-10-13T05:04:00.710Z,100982.91
2022-10-13T05:06:32.719Z,100988.28
2022-10-13T05:09:01.426Z,100988.28
2022-10-13T05:11:30.520Z,100990.97
2022-10-13T05:13:59.857Z,100988.28
2022-10-13T05:16:29.430Z,100983.91
2022-10-13T05:18:57.890Z,100972.25
2022-10-13T05:21:27.864Z,100984.88
2022-10-13T05:24:00.164Z,100982.91
2022-10-13T05:26:32.557Z,100977.53
2022-10-13T05:29:02.658Z,100976.69
2022-10-13T05:31:33.167Z,100977.81
2022-10-13T05:34:02.320Z,100977.81
2022-10-13T05:36:32.730Z,100985.75
2022-10-13T05:39:04.534Z,100967.34
2022-10-13T05:41:33.437Z,100980.38
2022-10-13T05:44:04.242Z,100968.06
2022-10-13T05:46:32.704Z,100969.63
2022-10-13T05:49:00.911Z,100960.25
2022-10-13T05:51:33.763Z,100958.00
2022-10-13T05:54:08.668Z,100962.41
2022-10-13T05:56:41.483Z,100955.31
2022-10-13T05:59:14.028Z,100951.81
2022-10-13T06:01:43.562Z,100951.81
2022-10-13T06:04:16.315Z,100944.72
2022-10-13T06:06:44.901Z,100940.19
2022-10-13T06:09:15.072Z,100942.88
2022-10-13T06:11:43.452Z,100933.16
2022-10-13T06:14:11.623Z,100932.13
2022-10-13T06:16:41.471Z,100924.06
2022-10-13T06:19:09.953Z,100931.44
2022-10-13T06:21:38.371Z,100926.78
2022-10-13T06:24:07.090Z,100920.38
2022-10-13T06:26:36.637Z,100933.16
2022-10-13T06:29:05.239Z,100932.84
2022-10-13T06:31:33.563Z,100934.53
2022-10-13T06:34:01.820Z,100925.78
2022-10-13T06:36:30.242Z,100923.78
2022-10-13T06:38:58.463Z,100931.00
2022-10-13T06:41:27.273Z,100929.31
2022-10-13T06:43:56.831Z,100922.94
2022-10-13T06:46:24.965Z,100922.13
2022-10-13T06:48:53.714Z,100927.47
2022-10-13T06:51:21.819Z,100926.47
2022-10-13T06:53:49.912Z,100916.75
2022-10-13T06:56:18.146Z,100927.47
2022-10-13T06:58:46.243Z,100922.13
2022-10-13T07:01:16.774Z,100919.41
2022-10-13T07:03:44.882Z,100922.13
2022-10-13T07:06:13.033Z,100915.88
2022-10-13T07:08:41.482Z,100920.38
2022-10-13T07:11:15.853Z,100918.72
2022-10-13T07:13:46.663Z,100924.06
2022-10-13T07:16:18.189Z,100925.78
2022-10-13T07:18:48.694Z,100906.09
2022-10-13T07:21:18.250Z,100924.06
2022-10-13T07:23:48.941Z,100918.84
2022-10-13T07:26:17.594Z,100910.47
2022-10-13T07:28:46.367Z,100925.78
2022-10-13T07:31:17.952Z,100913.47
2022-10-13T07:33:48.408Z,100918.72
2022-10-13T07:36:16.766Z,100916.75
2022-10-13T07:38:45.263Z,100919.56
2022-10-13T07:41:14.561Z,100918.72
2022-10-13T07:43:42.874Z,100915.88
2022-10-13T07:46:13.679Z,100909.66
2022-10-13T07:48:43.669Z,100907.81
2022-10-13T07:51:14.116Z,100907.97
2022-10-13T07:53:43.868Z,100909.66
2022-10-13T07:56:14.447Z,100900.28
2022-10-13T07:58:46.717Z,100902.59
2022-10-13T08:01:16.292Z,100902.59
2022-10-13T08:03:49.923Z,100897.22
2022-10-13T08:06:18.976Z,100891.84
2022-10-13T08:08:47.335Z,100891.13
2022-10-13T08:11:17.358Z,100889.16
2022-10-13T08:13:48.951Z,100891.84
2022-10-13T08:16:17.213Z,100887.47
2022-10-13T08:18:47.222Z,100890.16
2022-10-13T08:21:56.772Z,100890.84
2022-10-13T08:24:07.538Z,100884.78
2022-10-13T08:26:35.862Z,100883.06
2022-10-13T08:31:53.179Z,100888.44
2022-10-13T08:34:26.465Z,100886.47
2022-10-13T08:36:56.785Z,100884.78
2022-10-13T08:39:26.604Z,100884.78
2022-10-13T08:41:56.718Z,100878.78
2022-10-13T08:47:28.186Z,100861.41
2022-10-13T08:50:01.334Z,100877.69
2022-10-13T08:52:43.407Z,100872.31
2022-10-13T08:55:22.507Z,100796.97
2022-10-13T08:57:50.782Z,100881.38
2022-10-13T09:00:19.817Z,100870.63
2022-10-13T09:02:48.901Z,100870.63
2022-10-13T09:05:31.583Z,100871.59
2022-10-13T09:08:01.924Z,100868.91
2022-10-13T09:10:30.101Z,100870.63
2022-10-13T09:13:01.115Z,100872.31
2022-10-13T09:15:29.276Z,100860.41
2022-10-13T09:18:11.963Z,100867.94
2022-10-13T09:20:42.247Z,100861.56
2022-10-13T09:23:20.157Z,100867.78
2022-10-13T09:25:50.112Z,100868.66
2022-10-13T09:28:25.039Z,100873.16
2022-10-13T09:31:04.251Z,100844.59
2022-10-13T09:33:36.608Z,100866.94
2022-10-13T09:36:12.571Z,100857.91
2022-10-13T09:38:42.500Z,100854.22
2022-10-13T09:41:22.812Z,100848.84
2022-10-13T09:44:05.860Z,100848.13
2022-10-13T09:46:37.667Z,100847.41
2022-10-13T09:49:08.621Z,100854.34
2022-10-13T09:51:41.363Z,100850.81
2022-10-13T09:54:27.996Z,100818.44
2022-10-13T09:57:02.300Z,100858.72
2022-10-13T09:59:34.738Z,100851.69
2022-10-13T10:02:19.416Z,100849.84
2022-10-13T10:04:52.628Z,100854.22
2022-10-13T10:07:30.529Z,100849.69
2022-10-13T10:10:02.762Z,100838.38
2022-10-13T10:12:37.502Z,100842.31
2022-10-13T10:15:21.134Z,100847.97
2022-10-13T10:17:56.511Z,100816.63
2022-10-13T10:20:43.289Z,100854.22
2022-10-13T10:23:20.420Z,100847.16
2022-10-13T10:25:52.502Z,100844.31
2022-10-13T10:28:41.021Z,100841.78
2022-10-13T10:31:22.238Z,100847.16
2022-10-13T10:34:02.781Z,100839.09
2022-10-13T10:36:42.516Z,100840.31
2022-10-13T10:39:23.338Z,100832.69
2022-10-13T10:41:58.657Z,100846.44
2022-10-13T10:44:32.871Z,100840.06
2022-10-13T10:47:06.305Z,100819.69
2022-10-13T10:49:39.590Z,100831.84
2022-10-13T10:52:13.504Z,100829.03
2022-10-13T10:54:51.013Z,100820.97
2022-10-13T10:57:24.979Z,100826.34
2022-10-13T11:00:02.917Z,100829.03
2022-10-13T11:02:45.955Z,100812.91
2022-10-13T11:05:16.265Z,100823.66
2022-10-13T11:07:57.879Z,100813.75
2022-10-13T11:10:29.326Z,100815.88
2022-10-13T11:13:17.737Z,100811.22
2022-10-13T11:15:47.241Z,100805.84
2022-10-13T11:19:07.299Z,100802.31
2022-10-13T11:22:24.816Z,100808.69
2022-10-13T11:25:20.688Z,100809.53
2022-10-13T11:27:50.757Z,100800.75
2022-10-13T11:30:42.539Z,100797.06
2022-10-13T11:33:48.335Z,100803.31
2022-10-13T11:36:48.277Z,100796.25
2022-10-13T11:39:48.157Z,100798.78
2022-10-13T11:42:42.633Z,100815.88
2022-10-13T11:45:28.555Z,100799.75
2022-10-13T11:48:43.720Z,100804.16
2022-10-13T11:51:23.573Z,100797.06
2022-10-13T11:53:56.878Z,100790.88
2022-10-13T11:56:39.418Z,100797.94
2022-10-13T11:59:21.839Z,100785.19
2022-10-13T12:01:55.279Z,100796.25
2022-10-13T12:04:25.116Z,100786.31
2022-10-13T12:07:01.203Z,100781.97
2022-10-13T12:09:31.751Z,100777.28
2022-10-13T12:12:03.700Z,100778.97
2022-10-13T12:14:39.986Z,100777.28
2022-10-13T12:17:24.365Z,100769.91
2022-10-13T12:19:53.568Z,100769.91
2022-10-13T12:22:22.867Z,100751.25
2022-10-13T12:25:00.221Z,100734.59
2022-10-13T12:27:32.695Z,100752.50
2022-10-13T12:30:01.298Z,100748.28
2022-10-13T12:32:33.833Z,100753.78
2022-10-13T12:35:17.410Z,100748.13
2022-10-13T12:37:46.307Z,100755.19
2022-10-13T12:40:16.701Z,100755.19
2022-10-13T12:42:46.155Z,100748.97
2022-10-13T12:45:17.432Z,100742.75
2022-10-13T12:47:53.456Z,100748.13
2022-10-13T12:50:23.612Z,100748.97
2022-10-13T12:52:53.700Z,100744.44
2022-10-13T12:55:24.020Z,100735.69
2022-10-13T12:57:53.524Z,100728.31
2022-10-13T13:00:24.258Z,100738.22
2022-10-13T13:02:56.657Z,100735.41
2022-10-13T13:05:32.854Z,100735.41
2022-10-13T13:08:02.109Z,100734.53
2022-10-13T13:10:31.444Z,100733.69
2022-10-13T13:13:15.266Z,100733.69
2022-10-13T13:15:43.678Z,100729.47
2022-10-13T13:18:36.429Z,100732.00
2022-10-13T13:21:07.291Z,100717.88
2022-10-13T13:23:36.114Z,100724.94
2022-10-13T13:26:08.093Z,100721.25
2022-10-13T13:28:36.833Z,100717.56
2022-10-13T13:31:07.759Z,100716.72
2022-10-13T13:33:37.735Z,100710.50
2022-10-13T13:36:06.548Z,100712.19
2022-10-13T13:38:34.695Z,100720.25
2022-10-13T13:41:04.085Z,100715.66
2022-10-13T13:43:32.469Z,100712.50
2022-10-13T13:46:00.619Z,100717.56
2022-10-13T13:48:28.777Z,100706.13
2022-10-13T13:50:58.417Z,100713.47
2022-10-13T13:53:26.801Z,100712.50
2022-10-13T13:55:55.204Z,100722.94
2022-10-13T13:58:23.441Z,100712.19
2022-10-13T14:00:51.849Z,100715.19
2022-10-13T14:03:20.105Z,100717.56
2022-10-13T14:05:48.933Z,100713.19
2022-10-13T14:08:18.738Z,100713.03
2022-10-13T14:10:47.413Z,100700.75
2022-10-13T14:13:15.945Z,100711.22
2022-10-13T14:15:47.525Z,100696.69
2022-10-13T14:18:16.551Z,100708.13
2022-10-13T14:20:45.241Z,100716.59
2022-10-13T14:23:13.436Z,100715.88
2022-10-13T14:25:43.169Z,100708.53
2022-10-13T14:28:14.618Z,100711.88
2022-10-13T14:30:47.123Z,100712.91
2022-10-13T14:33:19.302Z,100714.88
2022-10-13T14:35:48.102Z,100717.56
2022-10-13T14:38:16.283Z,100717.56
2022-10-13T14:40:45.879Z,100709.13
2022-10-13T14:43:15.202Z,100708.25
2022-10-13T14:45:43.402Z,100699.63
2022-10-13T14:48:12.295Z,100706.44
2022-10-13T14:50:40.480Z,100700.75
2022-10-13T14:53:15.662Z,100706.81
2022-10-13T14:55:45.930Z,100700.75
2022-10-13T14:58:14.232Z,100708.53
2022-10-13T15:00:44.865Z,100703.16
2022-10-13T15:03:13.394Z,100703.16
2022-10-13T15:05:41.726Z,100703.16
2022-10-13T15:08:09.921Z,100697.78
2022-10-13T15:10:38.855Z,100685.31
2022-10-13T15:13:08.448Z,100692.41
2022-10-13T15:15:36.675Z,100695.09
2022-10-13T15:18:04.997Z,100668.44
2022-10-13T15:20:33.472Z,100692.41
2022-10-13T15:23:01.876Z,100701.44
2022-10-13T15:25:30.106Z,100691.03
2022-10-13T15:27:58.226Z,100683.63
2022-10-13T15:30:28.076Z,100690.69
2022-10-13T15:32:56.246Z,100690.69
2022-10-13T15:35:24.406Z,100679.13
2022-10-13T15:37:52.951Z,100680.94
2022-10-13T15:40:21.128Z,100672.03
2022-10-13T15:42:49.295Z,100689.00
2022-10-13T15:45:17.523Z,100679.25
2022-10-13T15:47:47.145Z,100683.94
2022-10-13T15:50:15.283Z,100680.56
2022-10-13T15:52:43.763Z,100671.78
2022-10-13T15:55:13.680Z,100666.41
2022-10-13T15:57:42.372Z,100651.88
2022-10-13T16:00:13.371Z,100647.16
2022-10-13T16:02:42.015Z,100650.00
2022-10-13T16:05:14.530Z,100655.09
2022-10-13T16:07:43.752Z,100644.63
2022-10-13T16:10:13.899Z,100656.75
2022-10-13T16:12:46.944Z,100614.56
2022-10-13T16:15:19.835Z,100646.00
2022-10-13T16:17:48.219Z,100651.38
2022-10-13T16:20:18.226Z,100657.63
2022-10-13T16:22:47.310Z,100647.69
2022-10-13T16:25:15.765Z,100650.53
2022-10-13T16:27:44.703Z,100653.06
2022-10-13T16:30:13.904Z,100653.06
2022-10-13T16:32:42.415Z,100653.94
2022-10-13T16:35:11.361Z,100644.03
2022-10-13T16:37:41.400Z,100650.38
2022-10-13T16:40:10.694Z,100649.41
2022-10-13T16:42:39.354Z,100646.72
2022-10-13T16:45:08.851Z,100651.09
2022-10-13T16:47:39.276Z,100645.00
2022-10-13T16:50:09.980Z,100652.09
2022-10-13T16:52:41.177Z,100637.94
2022-10-13T16:55:11.716Z,100643.31
2022-10-13T16:57:40.116Z,100646.56
2022-10-13T17:00:10.268Z,100640.94
2022-10-13T17:02:38.747Z,100645.16
2022-10-13T17:05:07.523Z,100651.38
2022-10-13T17:07:36.034Z,100653.94
2022-10-13T17:10:04.464Z,100656.75
2022-10-13T17:12:35.875Z,100661.13
2022-10-13T17:15:04.604Z,100658.44
2022-10-13T17:17:35.155Z,100658.44
2022-10-13T17:20:04.235Z,100662.00
2022-10-13T17:22:32.899Z,100662.13
2022-10-13T17:25:01.743Z,100663.81
2022-10-13T17:27:29.996Z,100663.00
2022-10-13T17:30:00.126Z,100659.44
2022-10-13T17:32:28.730Z,100663.81
2022-10-13T17:34:57.321Z,100643.81
2022-10-13T17:37:26.582Z,100669.19
2022-10-13T17:39:55.002Z,100663.13
2022-10-13T17:42:24.020Z,100655.09
2022-10-13T17:44:53.263Z,100660.47
2022-10-13T17:47:23.254Z,100645.34
2022-10-13T17:49:52.057Z,100655.09
2022-10-13T17:52:20.908Z,100648.31
2022-10-13T17:54:50.055Z,100652.41
2022-10-13T17:57:18.973Z,100650.00
2022-10-13T17:59:47.891Z,100657.06
2022-10-13T18:02:16.591Z,100576.53
2022-10-13T18:04:46.898Z,100650.72
2022-10-13T18:07:15.214Z,100656.91
2022-10-13T18:09:44.714Z,100646.31
2022-10-13T18:12:13.362Z,100648.84
2022-10-13T18:14:42.111Z,100648.03
2022-10-13T18:17:10.298Z,100648.03
2022-10-13T18:19:40.474Z,100653.41
2022-10-13T18:22:10.220Z,100653.41
2022-10-13T18:24:40.164Z,100643.47
2022-10-13T18:27:08.829Z,100648.84
2022-10-13T18:29:39.119Z,100638.97
2022-10-13T18:32:07.339Z,100651.53
2022-10-13T18:34:36.399Z,100648.03
2022-10-13T18:37:05.740Z,100636.72
2022-10-13T18:39:35.610Z,100646.31
2022-10-13T18:42:04.275Z,100653.41
2022-10-13T18:44:32.483Z,100653.41
2022-10-13T18:47:00.801Z,100641.78
2022-10-13T18:49:33.262Z,100644.34
2022-10-13T18:52:02.420Z,100644.34
2022-10-13T18:54:31.505Z,100655.09
2022-10-13T18:57:01.087Z,100653.41
2022-10-13T18:59:29.506Z,100657.75
2022-10-13T19:01:57.858Z,100651.38
2022-10-13T19:04:26.648Z,100636.13
2022-10-13T19:06:54.960Z,100638.25
2022-10-13T19:09:24.974Z,100640.63
2022-10-13T19:11:53.642Z,100637.28
2022-10-13T19:14:23.711Z,100634.88
2022-10-13T19:16:52.011Z,100632.47
2022-10-13T19:19:20.643Z,100647.03
2022-10-13T19:21:49.426Z,100653.41
2022-10-13T19:24:17.992Z,100649.72
2022-10-13T19:26:46.366Z,100644.34
2022-10-13T19:29:16.444Z,100642.66
2022-10-13T19:31:46.605Z,100646.00
2022-10-13T19:34:15.435Z,100646.88
2022-10-13T19:36:46.264Z,100632.19
2022-10-13T19:39:17.748Z,100648.56
2022-10-13T19:41:47.668Z,100630.75
2022-10-13T19:44:16.792Z,100638.66
2022-10-13T19:46:48.741Z,100636.94
2022-10-13T19:49:19.637Z,100649.41
2022-10-13T19:51:49.259Z,100639.78
2022-10-13T19:54:19.620Z,100635.56
2022-10-13T19:56:50.686Z,100642.31
2022-10-13T19:59:19.709Z,100636.78
2022-10-13T20:01:50.418Z,100636.50
2022-10-13T20:04:20.633Z,100581.34
2022-10-13T20:06:49.290Z,100634.38
2022-10-13T20:09:18.101Z,100637.75
2022-10-13T20:11:47.075Z,100639.44
2022-10-13T20:14:15.286Z,100644.66
2022-10-13T20:16:43.645Z,100638.28
2022-10-13T20:19:15.291Z,100638.28
2022-10-13T20:21:44.236Z,100598.50
2022-10-13T20:24:12.448Z,100634.63
2022-10-13T20:26:41.156Z,100632.59
2022-10-13T20:29:09.615Z,100644.22
2022-10-13T20:31:38.195Z,100630.78
2022-10-13T20:34:15.222Z,100631.78
2022-10-13T20:36:43.317Z,100637.16
2022-10-13T20:39:11.512Z,100599.97
2022-10-13T20:41:40.962Z,100593.16
2022-10-13T20:44:10.780Z,100632.91
2022-10-13T20:46:38.972Z,100618.84
2022-10-13T20:49:11.779Z,100635.75
2022-10-13T20:51:42.018Z,100575.84
2022-10-13T20:54:19.688Z,100605.91
2022-10-13T20:56:48.362Z,100638.44
2022-10-13T20:59:16.536Z,100638.59
2022-10-13T21:01:44.997Z,100594.75
2022-10-13T21:04:13.391Z,100619.56
2022-10-13T21:06:43.468Z,100594.84
2022-10-13T21:09:12.194Z,100632.38
2022-10-13T21:11:41.452Z,100590.09
2022-10-13T21:14:10.845Z,100625.28
2022-10-13T21:16:39.370Z,100602.50
2022-10-13T21:19:08.476Z,100631.53
2022-10-13T21:21:37.855Z,100630.66
2022-10-13T21:24:08.970Z,100628.00
2022-10-13T21:26:37.794Z,100618.25
2022-10-13T21:29:06.281Z,100618.25
2022-10-13T21:31:34.420Z,100590.31
2022-10-13T21:34:03.249Z,100539.56
2022-10-13T21:36:33.344Z,100622.59
2022-10-13T21:39:03.334Z,100620.94
2022-10-13T21:41:33.035Z,100617.22
2022-10-13T21:44:01.142Z,100625.28
2022-10-13T21:46:33.210Z,100612.88
2022-10-13T21:49:02.807Z,100612.88
2022-10-13T21:51:32.688Z,100613.16
2022-10-13T21:54:03.313Z,100619.25
2022-10-13T21:56:34.168Z,100609.47
2022-10-13T21:59:02.742Z,100607.78
2022-10-13T22:01:31.159Z,100580.44
2022-10-13T22:04:02.628Z,100607.66
2022-10-13T22:06:34.098Z,100588.22
2022-10-13T22:09:05.016Z,100581.41
2022-10-13T22:11:37.236Z,100604.09
2022-10-13T22:14:06.080Z,100606.78
2022-10-13T22:16:36.576Z,100607.66
2022-10-13T22:19:05.200Z,100610.47
2022-10-13T22:21:35.426Z,100605.81
2022-10-13T22:24:06.962Z,100593.94
2022-10-13T22:26:39.010Z,100603.13
2022-10-13T22:29:08.342Z,100605.81
2022-10-13T22:31:37.193Z,100604.09
2022-10-13T22:34:07.148Z,100589.88
2022-10-13T22:36:35.817Z,100592.56
2022-10-13T22:39:05.548Z,100585.22
2022-10-13T22:41:35.627Z,100588.91
2022-10-13T22:44:05.417Z,100588.28
2022-10-13T22:46:36.016Z,100593.66
2022-10-13T22:49:04.515Z,100590.97
2022-10-13T22:51:35.767Z,100568.97
2022-10-13T22:54:04.085Z,100587.47
2022-10-13T22:56:34.353Z,100586.59
2022-10-13T22:59:05.802Z,100583.06
2022-10-13T23:01:34.187Z,100584.91
2022-10-13T23:04:02.556Z,100578.69
2022-10-13T23:06:33.086Z,100570.63
2022-10-13T23:09:02.391Z,100577.84
2022-10-13T23:11:30.535Z,100577.84
2022-10-13T23:13:58.723Z,100555.00
2022-10-13T23:16:28.690Z,100571.47
2022-10-13T23:18:57.015Z,100573.31
2022-10-13T23:21:27.278Z,100566.09
2022-10-13T23:23:56.945Z,100568.78
2022-10-13T23:26:25.569Z,100563.41
2022-10-13T23:28:53.871Z,100561.72
2022-10-13T23:31:22.150Z,100540.72
2022-10-13T23:33:51.911Z,100561.56
2022-10-13T23:36:21.974Z,100556.34
2022-10-13T23:38:50.351Z,100530.69
2022-10-13T23:41:18.508Z,100554.66
2022-10-13T23:43:46.835Z,100545.38
2022-10-13T23:46:14.965Z,100548.28
2022-10-13T23:48:43.248Z,100551.81
2022-10-13T23:51:14.450Z,100554.66
2022-10-13T23:53:43.459Z,100551.81
2022-10-13T23:56:13.052Z,100544.75
2022-10-13T23:58:43.574Z,100477.97
